sensor_id;sensor_type;location;lat;lon;timestamp;P1;durP1;ratioP1;P2;durP2;ratioP2
78053;SDS011;67726;45.636;11.752;2023-04-02T00:00:29;41.78;;;22.55;;
78053;SDS011;67726;45.636;11.752;2023-04-02T00:03:02;42.83;;;22.90;;
78053;SDS011;67726;45.636;11.752;2023-04-02T00:05:39;46.80;;;23.38;;
78053;SDS011;67726;45.636;11.752;2023-04-02T00:10:49;43.80;;;22.73;;
78053;SDS011;67726;45.636;11.752;2023-04-02T00:13:34;43.42;;;21.83;;
78053;SDS011;67726;45.636;11.752;2023-04-02T00:16:04;40.43;;;21.40;;
78053;SDS011;67726;45.636;11.752;2023-04-02T00:18:32;39.03;;;20.33;;
78053;SDS011;67726;45.636;11.752;2023-04-02T00:23:40;43.60;;;22.25;;
78053;SDS011;67726;45.636;11.752;2023-04-02T00:28:53;43.10;;;22.67;;
78053;SDS011;67726;45.636;11.752;2023-04-02T00:31:19;60.03;;;27.27;;
78053;SDS011;67726;45.636;11.752;2023-04-02T00:33:45;43.50;;;24.55;;
78053;SDS011;67726;45.636;11.752;2023-04-02T00:36:12;48.10;;;24.42;;
78053;SDS011;67726;45.636;11.752;2023-04-02T00:38:37;37.17;;;21.03;;
78053;SDS011;67726;45.636;11.752;2023-04-02T00:41:09;35.03;;;19.85;;
78053;SDS011;67726;45.636;11.752;2023-04-02T00:43:41;39.70;;;22.13;;
78053;SDS011;67726;45.636;11.752;2023-04-02T00:46:13;39.20;;;22.00;;
78053;SDS011;67726;45.636;11.752;2023-04-02T00:48:43;35.05;;;19.48;;
78053;SDS011;67726;45.636;11.752;2023-04-02T00:51:23;29.07;;;16.33;;
78053;SDS011;67726;45.636;11.752;2023-04-02T00:53:52;34.25;;;18.85;;
78053;SDS011;67726;45.636;11.752;2023-04-02T00:56:24;28.73;;;16.48;;
78053;SDS011;67726;45.636;11.752;2023-04-02T00:59:20;34.22;;;19.27;;
78053;SDS011;67726;45.636;11.752;2023-04-02T01:01:50;33.17;;;17.75;;
78053;SDS011;67726;45.636;11.752;2023-04-02T01:04:31;29.63;;;17.07;;
78053;SDS011;67726;45.636;11.752;2023-04-02T01:07:04;31.02;;;17.05;;
78053;SDS011;67726;45.636;11.752;2023-04-02T01:17:59;33.00;;;17.57;;
78053;SDS011;67726;45.636;11.752;2023-04-02T01:31:40;30.98;;;16.38;;
78053;SDS011;67726;45.636;11.752;2023-04-02T01:34:10;29.77;;;15.57;;
78053;SDS011;67726;45.636;11.752;2023-04-02T01:44:53;37.65;;;18.52;;
78053;SDS011;67726;45.636;11.752;2023-04-02T01:47:25;31.63;;;17.40;;
78053;SDS011;67726;45.636;11.752;2023-04-02T01:50:00;29.30;;;16.02;;
78053;SDS011;67726;45.636;11.752;2023-04-02T01:52:39;29.47;;;14.20;;
78053;SDS011;67726;45.636;11.752;2023-04-02T01:55:08;30.67;;;15.63;;
78053;SDS011;67726;45.636;11.752;2023-04-02T01:57:37;30.20;;;16.35;;
78053;SDS011;67726;45.636;11.752;2023-04-02T02:00:06;29.38;;;14.93;;
78053;SDS011;67726;45.636;11.752;2023-04-02T02:02:37;25.92;;;14.60;;
78053;SDS011;67726;45.636;11.752;2023-04-02T02:05:04;28.93;;;14.10;;
78053;SDS011;67726;45.636;11.752;2023-04-02T02:07:36;29.42;;;16.10;;
78053;SDS011;67726;45.636;11.752;2023-04-02T02:10:02;30.30;;;15.40;;
78053;SDS011;67726;45.636;11.752;2023-04-02T02:12:28;30.52;;;14.95;;
78053;SDS011;67726;45.636;11.752;2023-04-02T02:14:53;30.30;;;14.47;;
78053;SDS011;67726;45.636;11.752;2023-04-02T02:17:23;28.85;;;14.30;;
78053;SDS011;67726;45.636;11.752;2023-04-02T02:19:54;32.07;;;15.63;;
78053;SDS011;67726;45.636;11.752;2023-04-02T02:22:35;30.30;;;16.15;;
78053;SDS011;67726;45.636;11.752;2023-04-02T02:25:04;30.15;;;16.23;;
78053;SDS011;67726;45.636;11.752;2023-04-02T02:30:26;36.53;;;18.05;;
78053;SDS011;67726;45.636;11.752;2023-04-02T02:33:12;41.93;;;19.40;;
78053;SDS011;67726;45.636;11.752;2023-04-02T02:41:48;44.47;;;19.90;;
78053;SDS011;67726;45.636;11.752;2023-04-02T02:44:18;41.97;;;20.25;;
78053;SDS011;67726;45.636;11.752;2023-04-02T02:47:03;47.60;;;21.10;;
78053;SDS011;67726;45.636;11.752;2023-04-02T02:49:31;67.72;;;25.33;;
78053;SDS011;67726;45.636;11.752;2023-04-02T02:52:17;42.72;;;20.95;;
78053;SDS011;67726;45.636;11.752;2023-04-02T02:54:47;36.20;;;18.45;;
78053;SDS011;67726;45.636;11.752;2023-04-02T02:57:17;36.63;;;19.80;;
78053;SDS011;67726;45.636;11.752;2023-04-02T02:59:47;33.13;;;17.37;;
78053;SDS011;67726;45.636;11.752;2023-04-02T03:02:15;40.78;;;19.95;;
78053;SDS011;67726;45.636;11.752;2023-04-02T03:04:44;40.75;;;19.52;;
78053;SDS011;67726;45.636;11.752;2023-04-02T03:07:14;30.92;;;17.35;;
78053;SDS011;67726;45.636;11.752;2023-04-02T03:12:41;35.40;;;18.97;;
78053;SDS011;67726;45.636;11.752;2023-04-02T03:15:12;33.72;;;17.60;;
78053;SDS011;67726;45.636;11.752;2023-04-02T03:18:11;30.83;;;16.85;;
78053;SDS011;67726;45.636;11.752;2023-04-02T03:20:52;31.35;;;16.98;;
78053;SDS011;67726;45.636;11.752;2023-04-02T03:23:34;34.40;;;18.30;;
78053;SDS011;67726;45.636;11.752;2023-04-02T03:29:14;33.92;;;17.48;;
78053;SDS011;67726;45.636;11.752;2023-04-02T03:31:44;32.70;;;16.70;;
78053;SDS011;67726;45.636;11.752;2023-04-02T03:34:17;34.95;;;17.00;;
78053;SDS011;67726;45.636;11.752;2023-04-02T03:40:03;31.27;;;16.27;;
78053;SDS011;67726;45.636;11.752;2023-04-02T03:45:32;30.63;;;17.23;;
78053;SDS011;67726;45.636;11.752;2023-04-02T03:53:02;34.17;;;18.30;;
78053;SDS011;67726;45.636;11.752;2023-04-02T03:55:30;38.47;;;17.13;;
78053;SDS011;67726;45.636;11.752;2023-04-02T04:03:17;39.25;;;17.52;;
78053;SDS011;67726;45.636;11.752;2023-04-02T04:09:09;31.25;;;16.83;;
78053;SDS011;67726;45.636;11.752;2023-04-02T04:11:51;29.23;;;16.17;;
78053;SDS011;67726;45.636;11.752;2023-04-02T04:14:30;27.23;;;15.68;;
78053;SDS011;67726;45.636;11.752;2023-04-02T04:19:26;28.63;;;15.17;;
78053;SDS011;67726;45.636;11.752;2023-04-02T04:22:30;30.52;;;15.60;;
78053;SDS011;67726;45.636;11.752;2023-04-02T04:25:01;31.33;;;16.80;;
78053;SDS011;67726;45.636;11.752;2023-04-02T04:27:41;29.65;;;16.17;;
78053;SDS011;67726;45.636;11.752;2023-04-02T04:33:27;27.63;;;15.67;;
78053;SDS011;67726;45.636;11.752;2023-04-02T04:36:03;30.48;;;16.33;;
78053;SDS011;67726;45.636;11.752;2023-04-02T04:38:38;34.65;;;17.35;;
78053;SDS011;67726;45.636;11.752;2023-04-02T04:41:12;28.25;;;16.42;;
78053;SDS011;67726;45.636;11.752;2023-04-02T04:43:53;28.60;;;17.08;;
78053;SDS011;67726;45.636;11.752;2023-04-02T04:46:27;33.70;;;16.73;;
78053;SDS011;67726;45.636;11.752;2023-04-02T04:51:28;32.40;;;17.70;;
78053;SDS011;67726;45.636;11.752;2023-04-02T04:54:00;31.73;;;15.98;;
78053;SDS011;67726;45.636;11.752;2023-04-02T04:56:27;30.37;;;15.90;;
78053;SDS011;67726;45.636;11.752;2023-04-02T04:58:58;37.05;;;18.20;;
78053;SDS011;67726;45.636;11.752;2023-04-02T05:01:31;31.33;;;17.17;;
78053;SDS011;67726;45.636;11.752;2023-04-02T05:09:43;29.00;;;15.67;;
78053;SDS011;67726;45.636;11.752;2023-04-02T05:12:26;27.33;;;15.60;;
78053;SDS011;67726;45.636;11.752;2023-04-02T05:20:13;32.53;;;18.38;;
78053;SDS011;67726;45.636;11.752;2023-04-02T05:22:51;32.17;;;17.10;;
78053;SDS011;67726;45.636;11.752;2023-04-02T05:25:49;34.00;;;17.25;;
78053;SDS011;67726;45.636;11.752;2023-04-02T05:28:20;31.63;;;17.55;;
78053;SDS011;67726;45.636;11.752;2023-04-02T05:31:07;32.03;;;17.73;;
78053;SDS011;67726;45.636;11.752;2023-04-02T05:33:36;30.10;;;17.05;;
78053;SDS011;67726;45.636;11.752;2023-04-02T05:36:07;30.03;;;16.60;;
78053;SDS011;67726;45.636;11.752;2023-04-02T05:38:39;25.65;;;15.15;;
78053;SDS011;67726;45.636;11.752;2023-04-02T05:44:21;25.23;;;14.88;;
78053;SDS011;67726;45.636;11.752;2023-04-02T05:46:56;25.98;;;13.77;;
78053;SDS011;67726;45.636;11.752;2023-04-02T05:49:24;23.70;;;14.50;;
78053;SDS011;67726;45.636;11.752;2023-04-02T05:51:59;24.73;;;12.55;;
78053;SDS011;67726;45.636;11.752;2023-04-02T05:54:37;22.88;;;12.07;;
78053;SDS011;67726;45.636;11.752;2023-04-02T05:57:11;18.63;;;10.98;;
78053;SDS011;67726;45.636;11.752;2023-04-02T05:59:42;18.05;;;11.10;;
78053;SDS011;67726;45.636;11.752;2023-04-02T06:08:14;15.02;;;9.27;;
78053;SDS011;67726;45.636;11.752;2023-04-02T06:10:41;15.50;;;9.45;;
78053;SDS011;67726;45.636;11.752;2023-04-02T06:13:14;16.65;;;8.93;;
78053;SDS011;67726;45.636;11.752;2023-04-02T06:15:42;14.07;;;7.70;;
78053;SDS011;67726;45.636;11.752;2023-04-02T06:18:17;12.18;;;7.82;;
78053;SDS011;67726;45.636;11.752;2023-04-02T06:20:46;12.57;;;6.53;;
78053;SDS011;67726;45.636;11.752;2023-04-02T06:25:54;8.80;;;4.43;;
78053;SDS011;67726;45.636;11.752;2023-04-02T06:28:26;8.00;;;4.70;;
78053;SDS011;67726;45.636;11.752;2023-04-02T06:31:00;8.55;;;4.70;;
78053;SDS011;67726;45.636;11.752;2023-04-02T06:33:31;9.30;;;4.30;;
78053;SDS011;67726;45.636;11.752;2023-04-02T06:35:56;9.57;;;4.47;;
78053;SDS011;67726;45.636;11.752;2023-04-02T06:38:25;7.13;;;4.07;;
78053;SDS011;67726;45.636;11.752;2023-04-02T06:40:55;7.80;;;4.30;;
78053;SDS011;67726;45.636;11.752;2023-04-02T06:43:31;6.40;;;3.50;;
78053;SDS011;67726;45.636;11.752;2023-04-02T06:46:07;7.57;;;3.90;;
78053;SDS011;67726;45.636;11.752;2023-04-02T06:48:39;6.73;;;3.10;;
78053;SDS011;67726;45.636;11.752;2023-04-02T06:51:06;8.38;;;3.50;;
78053;SDS011;67726;45.636;11.752;2023-04-02T06:53:42;7.15;;;3.50;;
78053;SDS011;67726;45.636;11.752;2023-04-02T06:58:56;6.90;;;3.55;;
78053;SDS011;67726;45.636;11.752;2023-04-02T07:01:28;6.60;;;3.30;;
78053;SDS011;67726;45.636;11.752;2023-04-02T07:03:57;7.57;;;3.60;;
78053;SDS011;67726;45.636;11.752;2023-04-02T07:06:23;7.40;;;3.28;;
78053;SDS011;67726;45.636;11.752;2023-04-02T07:08:49;7.70;;;3.50;;
78053;SDS011;67726;45.636;11.752;2023-04-02T07:11:15;6.90;;;3.10;;
78053;SDS011;67726;45.636;11.752;2023-04-02T07:13:42;6.68;;;3.35;;
78053;SDS011;67726;45.636;11.752;2023-04-02T07:16:19;7.10;;;2.67;;
78053;SDS011;67726;45.636;11.752;2023-04-02T07:18:46;7.97;;;3.17;;
78053;SDS011;67726;45.636;11.752;2023-04-02T07:21:12;5.97;;;3.10;;
78053;SDS011;67726;45.636;11.752;2023-04-02T07:23:38;5.85;;;3.30;;
78053;SDS011;67726;45.636;11.752;2023-04-02T07:26:04;5.18;;;2.80;;
78053;SDS011;67726;45.636;11.752;2023-04-02T07:28:31;5.50;;;2.50;;
78053;SDS011;67726;45.636;11.752;2023-04-02T07:30:57;7.90;;;2.72;;
78053;SDS011;67726;45.636;11.752;2023-04-02T07:33:24;5.75;;;2.60;;
78053;SDS011;67726;45.636;11.752;2023-04-02T07:35:53;6.00;;;2.60;;
78053;SDS011;67726;45.636;11.752;2023-04-02T07:38:19;7.03;;;3.43;;
78053;SDS011;67726;45.636;11.752;2023-04-02T07:40:45;8.25;;;4.45;;
78053;SDS011;67726;45.636;11.752;2023-04-02T07:43:11;8.03;;;4.00;;
78053;SDS011;67726;45.636;11.752;2023-04-02T07:45:37;12.00;;;4.25;;
78053;SDS011;67726;45.636;11.752;2023-04-02T07:48:03;8.73;;;4.23;;
78053;SDS011;67726;45.636;11.752;2023-04-02T07:50:33;9.60;;;5.50;;
78053;SDS011;67726;45.636;11.752;2023-04-02T07:52:59;16.13;;;6.88;;
78053;SDS011;67726;45.636;11.752;2023-04-02T07:55:25;13.20;;;6.70;;
78053;SDS011;67726;45.636;11.752;2023-04-02T07:57:51;14.00;;;7.43;;
78053;SDS011;67726;45.636;11.752;2023-04-02T08:00:19;14.18;;;7.50;;
78053;SDS011;67726;45.636;11.752;2023-04-02T08:02:46;14.82;;;7.03;;
78053;SDS011;67726;45.636;11.752;2023-04-02T08:05:12;12.90;;;6.77;;
78053;SDS011;67726;45.636;11.752;2023-04-02T08:07:38;11.70;;;6.13;;
78053;SDS011;67726;45.636;11.752;2023-04-02T08:10:06;10.85;;;6.22;;
78053;SDS011;67726;45.636;11.752;2023-04-02T08:12:33;11.98;;;6.93;;
78053;SDS011;67726;45.636;11.752;2023-04-02T08:14:58;12.70;;;7.23;;
78053;SDS011;67726;45.636;11.752;2023-04-02T08:17:24;13.95;;;7.10;;
78053;SDS011;67726;45.636;11.752;2023-04-02T08:19:50;13.70;;;7.47;;
78053;SDS011;67726;45.636;11.752;2023-04-02T08:22:16;14.27;;;7.78;;
78053;SDS011;67726;45.636;11.752;2023-04-02T08:24:42;12.87;;;8.33;;
78053;SDS011;67726;45.636;11.752;2023-04-02T08:27:09;13.48;;;8.65;;
78053;SDS011;67726;45.636;11.752;2023-04-02T08:29:39;18.35;;;8.88;;
78053;SDS011;67726;45.636;11.752;2023-04-02T08:32:04;17.83;;;9.33;;
78053;SDS011;67726;45.636;11.752;2023-04-02T08:34:31;16.52;;;9.10;;
78053;SDS011;67726;45.636;11.752;2023-04-02T08:36:57;18.63;;;9.40;;
78053;SDS011;67726;45.636;11.752;2023-04-02T08:39:23;20.20;;;9.40;;
78053;SDS011;67726;45.636;11.752;2023-04-02T08:41:59;16.02;;;9.68;;
78053;SDS011;67726;45.636;11.752;2023-04-02T08:44:49;18.57;;;9.67;;
78053;SDS011;67726;45.636;11.752;2023-04-02T08:47:26;17.88;;;10.20;;
78053;SDS011;67726;45.636;11.752;2023-04-02T08:49:58;17.83;;;10.10;;
78053;SDS011;67726;45.636;11.752;2023-04-02T08:52:31;17.73;;;9.85;;
78053;SDS011;67726;45.636;11.752;2023-04-02T08:55:00;15.98;;;9.85;;
78053;SDS011;67726;45.636;11.752;2023-04-02T09:00:05;19.20;;;9.98;;
78053;SDS011;67726;45.636;11.752;2023-04-02T09:02:49;18.17;;;10.00;;
78053;SDS011;67726;45.636;11.752;2023-04-02T09:05:27;17.30;;;9.55;;
78053;SDS011;67726;45.636;11.752;2023-04-02T09:08:01;17.00;;;9.68;;
78053;SDS011;67726;45.636;11.752;2023-04-02T09:10:34;18.23;;;9.67;;
78053;SDS011;67726;45.636;11.752;2023-04-02T09:13:14;20.13;;;9.93;;
78053;SDS011;67726;45.636;11.752;2023-04-02T09:15:46;16.55;;;9.23;;
78053;SDS011;67726;45.636;11.752;2023-04-02T09:18:14;17.92;;;10.52;;
78053;SDS011;67726;45.636;11.752;2023-04-02T09:20:41;19.20;;;10.48;;
78053;SDS011;67726;45.636;11.752;2023-04-02T09:23:11;17.17;;;10.03;;
78053;SDS011;67726;45.636;11.752;2023-04-02T09:25:42;17.70;;;10.43;;
78053;SDS011;67726;45.636;11.752;2023-04-02T09:28:11;17.83;;;10.25;;
78053;SDS011;67726;45.636;11.752;2023-04-02T09:33:44;16.85;;;10.80;;
78053;SDS011;67726;45.636;11.752;2023-04-02T09:36:57;21.37;;;10.87;;
78053;SDS011;67726;45.636;11.752;2023-04-02T09:39:20;19.10;;;10.80;;
78053;SDS011;67726;45.636;11.752;2023-04-02T09:41:49;19.33;;;11.57;;
78053;SDS011;67726;45.636;11.752;2023-04-02T09:44:26;19.67;;;10.75;;
78053;SDS011;67726;45.636;11.752;2023-04-02T09:46:56;20.73;;;10.63;;
78053;SDS011;67726;45.636;11.752;2023-04-02T09:49:25;19.30;;;10.37;;
78053;SDS011;67726;45.636;11.752;2023-04-02T09:52:06;22.10;;;10.63;;
78053;SDS011;67726;45.636;11.752;2023-04-02T09:54:35;23.88;;;11.88;;
78053;SDS011;67726;45.636;11.752;2023-04-02T09:57:16;21.55;;;11.70;;
78053;SDS011;67726;45.636;11.752;2023-04-02T09:59:42;18.30;;;10.45;;
78053;SDS011;67726;45.636;11.752;2023-04-02T10:02:21;10.77;;;5.10;;
78053;SDS011;67726;45.636;11.752;2023-04-02T10:04:52;10.90;;;5.05;;
78053;SDS011;67726;45.636;11.752;2023-04-02T10:10:18;6.25;;;3.38;;
78053;SDS011;67726;45.636;11.752;2023-04-02T10:12:56;6.68;;;3.20;;
78053;SDS011;67726;45.636;11.752;2023-04-02T10:16:08;6.38;;;2.90;;
78053;SDS011;67726;45.636;11.752;2023-04-02T10:18:19;5.32;;;2.17;;
78053;SDS011;67726;45.636;11.752;2023-04-02T10:20:53;3.93;;;1.67;;
78053;SDS011;67726;45.636;11.752;2023-04-02T10:23:22;4.30;;;1.77;;
78053;SDS011;67726;45.636;11.752;2023-04-02T10:26:08;4.22;;;2.00;;
78053;SDS011;67726;45.636;11.752;2023-04-02T10:31:41;5.07;;;2.20;;
78053;SDS011;67726;45.636;11.752;2023-04-02T10:34:22;6.20;;;2.80;;
78053;SDS011;67726;45.636;11.752;2023-04-02T10:36:59;7.40;;;3.63;;
78053;SDS011;67726;45.636;11.752;2023-04-02T10:39:37;7.53;;;3.22;;
78053;SDS011;67726;45.636;11.752;2023-04-02T10:45:03;8.18;;;3.03;;
78053;SDS011;67726;45.636;11.752;2023-04-02T10:50:21;7.28;;;2.92;;
78053;SDS011;67726;45.636;11.752;2023-04-02T10:55:41;5.13;;;2.15;;
78053;SDS011;67726;45.636;11.752;2023-04-02T10:58:29;3.15;;;1.30;;
78053;SDS011;67726;45.636;11.752;2023-04-02T11:00:58;3.27;;;1.13;;
78053;SDS011;67726;45.636;11.752;2023-04-02T11:03:28;3.00;;;1.02;;
78053;SDS011;67726;45.636;11.752;2023-04-02T11:06:01;2.47;;;1.02;;
78053;SDS011;67726;45.636;11.752;2023-04-02T11:08:38;2.25;;;0.90;;
78053;SDS011;67726;45.636;11.752;2023-04-02T11:11:14;2.53;;;0.90;;
78053;SDS011;67726;45.636;11.752;2023-04-02T11:16:44;1.67;;;0.70;;
78053;SDS011;67726;45.636;11.752;2023-04-02T11:21:44;2.35;;;0.70;;
78053;SDS011;67726;45.636;11.752;2023-04-02T11:24:22;2.15;;;0.80;;
78053;SDS011;67726;45.636;11.752;2023-04-02T11:29:46;3.25;;;0.90;;
78053;SDS011;67726;45.636;11.752;2023-04-02T11:42:42;2.67;;;0.93;;
78053;SDS011;67726;45.636;11.752;2023-04-02T11:50:30;1.38;;;0.60;;
78053;SDS011;67726;45.636;11.752;2023-04-02T11:53:18;3.23;;;0.80;;
78053;SDS011;67726;45.636;11.752;2023-04-02T12:04:22;1.58;;;0.60;;
78053;SDS011;67726;45.636;11.752;2023-04-02T12:07:30;4.00;;;0.97;;
78053;SDS011;67726;45.636;11.752;2023-04-02T12:10:32;2.05;;;0.60;;
78053;SDS011;67726;45.636;11.752;2023-04-02T12:16:08;2.35;;;0.80;;
78053;SDS011;67726;45.636;11.752;2023-04-02T12:18:55;2.30;;;0.80;;
78053;SDS011;67726;45.636;11.752;2023-04-02T12:21:23;2.53;;;0.73;;
78053;SDS011;67726;45.636;11.752;2023-04-02T12:23:51;1.88;;;0.73;;
78053;SDS011;67726;45.636;11.752;2023-04-02T12:26:30;2.10;;;0.95;;
78053;SDS011;67726;45.636;11.752;2023-04-02T12:29:13;2.58;;;1.02;;
78053;SDS011;67726;45.636;11.752;2023-04-02T12:31:50;2.70;;;0.80;;
78053;SDS011;67726;45.636;11.752;2023-04-02T12:34:18;3.37;;;1.00;;
78053;SDS011;67726;45.636;11.752;2023-04-02T12:36:56;2.30;;;0.80;;
78053;SDS011;67726;45.636;11.752;2023-04-02T12:39:24;2.30;;;1.00;;
78053;SDS011;67726;45.636;11.752;2023-04-02T12:41:50;2.30;;;1.02;;
78053;SDS011;67726;45.636;11.752;2023-04-02T12:44:17;2.83;;;1.00;;
78053;SDS011;67726;45.636;11.752;2023-04-02T12:46:46;2.50;;;1.00;;
78053;SDS011;67726;45.636;11.752;2023-04-02T12:49:24;2.13;;;0.90;;
78053;SDS011;67726;45.636;11.752;2023-04-02T12:52:02;1.95;;;0.90;;
78053;SDS011;67726;45.636;11.752;2023-04-02T12:54:43;3.47;;;1.00;;
78053;SDS011;67726;45.636;11.752;2023-04-02T12:57:19;1.93;;;0.90;;
78053;SDS011;67726;45.636;11.752;2023-04-02T12:59:46;2.65;;;0.90;;
78053;SDS011;67726;45.636;11.752;2023-04-02T13:02:16;2.25;;;0.80;;
78053;SDS011;67726;45.636;11.752;2023-04-02T13:04:48;2.67;;;1.10;;
78053;SDS011;67726;45.636;11.752;2023-04-02T13:07:16;4.22;;;0.80;;
78053;SDS011;67726;45.636;11.752;2023-04-02T13:09:48;1.87;;;0.90;;
78053;SDS011;67726;45.636;11.752;2023-04-02T13:12:24;1.73;;;0.80;;
78053;SDS011;67726;45.636;11.752;2023-04-02T13:14:56;2.20;;;1.00;;
78053;SDS011;67726;45.636;11.752;2023-04-02T13:17:40;2.28;;;0.93;;
78053;SDS011;67726;45.636;11.752;2023-04-02T13:22:55;2.90;;;0.80;;
78053;SDS011;67726;45.636;11.752;2023-04-02T13:25:23;2.80;;;1.10;;
78053;SDS011;67726;45.636;11.752;2023-04-02T13:28:00;2.22;;;0.90;;
78053;SDS011;67726;45.636;11.752;2023-04-02T13:30:27;2.50;;;1.05;;
78053;SDS011;67726;45.636;11.752;2023-04-02T13:32:53;2.60;;;1.00;;
78053;SDS011;67726;45.636;11.752;2023-04-02T13:35:20;3.27;;;1.10;;
78053;SDS011;67726;45.636;11.752;2023-04-02T13:37:46;2.05;;;0.82;;
78053;SDS011;67726;45.636;11.752;2023-04-02T13:40:13;3.72;;;0.90;;
78053;SDS011;67726;45.636;11.752;2023-04-02T13:42:41;3.92;;;1.48;;
78053;SDS011;67726;45.636;11.752;2023-04-02T13:45:17;3.25;;;1.20;;
78053;SDS011;67726;45.636;11.752;2023-04-02T13:47:43;2.30;;;0.90;;
78053;SDS011;67726;45.636;11.752;2023-04-02T13:50:08;2.95;;;1.35;;
78053;SDS011;67726;45.636;11.752;2023-04-02T13:52:44;4.00;;;1.10;;
78053;SDS011;67726;45.636;11.752;2023-04-02T13:55:11;4.57;;;1.60;;
78053;SDS011;67726;45.636;11.752;2023-04-02T13:57:38;3.53;;;1.20;;
78053;SDS011;67726;45.636;11.752;2023-04-02T14:00:04;2.40;;;0.85;;
78053;SDS011;67726;45.636;11.752;2023-04-02T14:02:31;2.70;;;0.90;;
78053;SDS011;67726;45.636;11.752;2023-04-02T14:07:48;4.25;;;1.60;;
78053;SDS011;67726;45.636;11.752;2023-04-02T14:10:28;3.40;;;1.10;;
78053;SDS011;67726;45.636;11.752;2023-04-02T14:24:35;3.30;;;0.95;;
78053;SDS011;67726;45.636;11.752;2023-04-02T14:35:32;3.60;;;1.10;;
78053;SDS011;67726;45.636;11.752;2023-04-02T14:38:05;3.55;;;1.02;;
78053;SDS011;67726;45.636;11.752;2023-04-02T14:43:12;2.83;;;1.10;;
78053;SDS011;67726;45.636;11.752;2023-04-02T14:45:59;3.97;;;1.20;;
78053;SDS011;67726;45.636;11.752;2023-04-02T14:51:25;3.42;;;1.40;;
78053;SDS011;67726;45.636;11.752;2023-04-02T14:54:27;4.00;;;1.30;;
78053;SDS011;67726;45.636;11.752;2023-04-02T14:59:39;2.10;;;0.90;;
78053;SDS011;67726;45.636;11.752;2023-04-02T15:05:01;2.20;;;0.90;;
78053;SDS011;67726;45.636;11.752;2023-04-02T15:07:52;3.55;;;1.02;;
78053;SDS011;67726;45.636;11.752;2023-04-02T15:10:32;3.08;;;1.33;;
78053;SDS011;67726;45.636;11.752;2023-04-02T15:13:03;2.40;;;0.90;;
78053;SDS011;67726;45.636;11.752;2023-04-02T15:15:47;2.95;;;1.30;;
78053;SDS011;67726;45.636;11.752;2023-04-02T15:18:22;4.65;;;1.92;;
78053;SDS011;67726;45.636;11.752;2023-04-02T15:23:33;5.70;;;2.00;;
78053;SDS011;67726;45.636;11.752;2023-04-02T15:26:11;5.03;;;1.93;;
78053;SDS011;67726;45.636;11.752;2023-04-02T15:28:45;5.18;;;2.00;;
78053;SDS011;67726;45.636;11.752;2023-04-02T15:31:17;20.77;;;8.95;;
78053;SDS011;67726;45.636;11.752;2023-04-02T15:33:54;21.48;;;9.82;;
78053;SDS011;67726;45.636;11.752;2023-04-02T15:40:15;6.10;;;3.27;;
78053;SDS011;67726;45.636;11.752;2023-04-02T15:42:21;7.03;;;2.60;;
78053;SDS011;67726;45.636;11.752;2023-04-02T15:53:22;5.43;;;2.53;;
78053;SDS011;67726;45.636;11.752;2023-04-02T15:56:21;5.55;;;2.45;;
78053;SDS011;67726;45.636;11.752;2023-04-02T15:59:28;6.75;;;2.17;;
78053;SDS011;67726;45.636;11.752;2023-04-02T16:05:10;7.63;;;2.00;;
78053;SDS011;67726;45.636;11.752;2023-04-02T16:07:55;6.17;;;2.30;;
78053;SDS011;67726;45.636;11.752;2023-04-02T16:10:35;5.70;;;2.50;;
78053;SDS011;67726;45.636;11.752;2023-04-02T16:15:54;5.65;;;2.22;;
78053;SDS011;67726;45.636;11.752;2023-04-02T16:18:35;5.30;;;1.90;;
78053;SDS011;67726;45.636;11.752;2023-04-02T16:21:05;5.80;;;2.10;;
78053;SDS011;67726;45.636;11.752;2023-04-02T16:23:35;7.13;;;2.50;;
78053;SDS011;67726;45.636;11.752;2023-04-02T16:28:54;7.50;;;2.10;;
78053;SDS011;67726;45.636;11.752;2023-04-02T16:37:21;5.15;;;2.15;;
78053;SDS011;67726;45.636;11.752;2023-04-02T16:48:10;3.67;;;1.50;;
78053;SDS011;67726;45.636;11.752;2023-04-02T16:51:18;4.35;;;1.50;;
78053;SDS011;67726;45.636;11.752;2023-04-02T16:56:34;7.55;;;2.20;;
78053;SDS011;67726;45.636;11.752;2023-04-02T17:09:54;5.43;;;2.30;;
78053;SDS011;67726;45.636;11.752;2023-04-02T17:17:51;5.15;;;2.08;;
78053;SDS011;67726;45.636;11.752;2023-04-02T17:20:22;5.90;;;2.25;;
78053;SDS011;67726;45.636;11.752;2023-04-02T17:22:49;9.07;;;2.75;;
78053;SDS011;67726;45.636;11.752;2023-04-02T17:25:18;4.60;;;2.28;;
78053;SDS011;67726;45.636;11.752;2023-04-02T17:27:51;6.60;;;2.70;;
78053;SDS011;67726;45.636;11.752;2023-04-02T17:33:06;6.60;;;2.60;;
78053;SDS011;67726;45.636;11.752;2023-04-02T17:38:24;7.65;;;3.13;;
78053;SDS011;67726;45.636;11.752;2023-04-02T17:41:22;6.00;;;3.30;;
78053;SDS011;67726;45.636;11.752;2023-04-02T17:44:32;7.85;;;3.70;;
78053;SDS011;67726;45.636;11.752;2023-04-02T17:47:18;6.00;;;3.20;;
78053;SDS011;67726;45.636;11.752;2023-04-02T17:52:23;8.27;;;3.45;;
78053;SDS011;67726;45.636;11.752;2023-04-02T18:05:44;9.70;;;5.47;;
78053;SDS011;67726;45.636;11.752;2023-04-02T18:11:08;12.70;;;5.15;;
78053;SDS011;67726;45.636;11.752;2023-04-02T18:13:59;15.15;;;7.10;;
78053;SDS011;67726;45.636;11.752;2023-04-02T18:16:55;13.73;;;6.27;;
78053;SDS011;67726;45.636;11.752;2023-04-02T18:19:50;16.05;;;7.00;;
78053;SDS011;67726;45.636;11.752;2023-04-02T18:41:42;11.13;;;6.47;;
78053;SDS011;67726;45.636;11.752;2023-04-02T18:46:54;13.02;;;7.90;;
78053;SDS011;67726;45.636;11.752;2023-04-02T18:49:36;13.52;;;7.30;;
78053;SDS011;67726;45.636;11.752;2023-04-02T18:52:11;14.13;;;7.72;;
78053;SDS011;67726;45.636;11.752;2023-04-02T18:57:25;18.43;;;9.67;;
78053;SDS011;67726;45.636;11.752;2023-04-02T19:00:15;14.98;;;9.02;;
78053;SDS011;67726;45.636;11.752;2023-04-02T19:02:58;17.27;;;7.55;;
78053;SDS011;67726;45.636;11.752;2023-04-02T19:05:44;13.33;;;7.27;;
78053;SDS011;67726;45.636;11.752;2023-04-02T19:08:17;14.57;;;7.38;;
78053;SDS011;67726;45.636;11.752;2023-04-02T19:11:06;10.77;;;6.47;;
78053;SDS011;67726;45.636;11.752;2023-04-02T19:13:37;10.30;;;6.22;;
78053;SDS011;67726;45.636;11.752;2023-04-02T19:24:25;14.20;;;6.97;;
78053;SDS011;67726;45.636;11.752;2023-04-02T19:35:54;21.63;;;10.85;;
78053;SDS011;67726;45.636;11.752;2023-04-02T19:43:59;14.27;;;8.25;;
78053;SDS011;67726;45.636;11.752;2023-04-02T19:46:25;14.30;;;7.97;;
78053;SDS011;67726;45.636;11.752;2023-04-02T19:51:36;16.35;;;8.55;;
78053;SDS011;67726;45.636;11.752;2023-04-02T19:54:01;15.27;;;8.07;;
78053;SDS011;67726;45.636;11.752;2023-04-02T19:56:27;15.15;;;8.00;;
78053;SDS011;67726;45.636;11.752;2023-04-02T19:58:53;16.10;;;8.43;;
78053;SDS011;67726;45.636;11.752;2023-04-02T20:01:19;22.80;;;9.98;;
78053;SDS011;67726;45.636;11.752;2023-04-02T20:03:44;17.67;;;9.50;;
78053;SDS011;67726;45.636;11.752;2023-04-02T20:06:10;17.58;;;8.68;;
78053;SDS011;67726;45.636;11.752;2023-04-02T20:08:36;12.85;;;7.50;;
78053;SDS011;67726;45.636;11.752;2023-04-02T20:11:02;12.53;;;7.17;;
78053;SDS011;67726;45.636;11.752;2023-04-02T20:13:29;13.57;;;7.38;;
78053;SDS011;67726;45.636;11.752;2023-04-02T20:15:57;16.33;;;8.05;;
78053;SDS011;67726;45.636;11.752;2023-04-02T20:18:27;16.38;;;7.82;;
78053;SDS011;67726;45.636;11.752;2023-04-02T20:20:53;16.17;;;9.17;;
78053;SDS011;67726;45.636;11.752;2023-04-02T20:23:19;17.63;;;9.55;;